Time;durP1;ratioP1;P1;durP2;ratioP2;P2;SDS_P1;SDS_P2;PMS_P1;PMS_P2;Temp;Humidity;BMP_temperature;BMP_pressure;BME280_temperature;BME280_humidity;BME280_pressure;Samples;Min_cycle;Max_cycle;Signal;HPM_P1;HPM_P2
2021/06/07 00:01:58;;;;;;;3.98;1.30;;;;;;;14.42;76.66;99222.81;1741641;79;21408;-52
2021/06/07 00:04:25;;;;;;;2.25;0.90;;;;;;;14.41;76.87;99218.36;1741016;79;21463;-52
2021/06/07 00:06:54;;;;;;;1.20;0.98;;;;;;;14.37;77.09;99219.03;1742263;79;20940;-52
2021/06/07 00:09:22;;;;;;;2.50;1.00;;;;;;;14.35;77.41;99218.30;1744368;79;21719;-52
2021/06/07 00:11:56;;;;;;;1.90;0.72;;;;;;;14.34;77.63;99221.11;1745041;79;21171;-51
2021/06/07 00:14:30;;;;;;;1.42;0.90;;;;;;;14.34;77.80;99217.91;1743263;79;20933;-53
2021/06/07 00:16:56;;;;;;;2.67;0.80;;;;;;;14.33;77.86;99218.89;1742630;79;21543;-54
2021/06/07 00:19:28;;;;;;;4.60;0.93;;;;;;;14.34;77.89;99221.98;1741795;80;21582;-53
2021/06/07 00:21:57;;;;;;;2.25;1.10;;;;;;;14.36;77.93;99218.68;1743254;79;20893;-53
2021/06/07 00:24:24;;;;;;;0.90;0.80;;;;;;;14.36;78.11;99219.16;1739897;79;21660;-52
2021/06/07 00:26:52;;;;;;;2.45;0.80;;;;;;;14.35;78.16;99221.00;1744490;79;20899;-51
2021/06/07 00:29:18;;;;;;;0.80;0.70;;;;;;;14.36;78.18;99218.68;1742260;80;20936;-53
2021/06/07 00:31:46;;;;;;;0.98;0.70;;;;;;;14.35;78.22;99221.49;1747959;79;20928;-52
2021/06/07 00:34:12;;;;;;;1.45;1.10;;;;;;;14.34;78.31;99224.69;1742661;79;20924;-52
2021/06/07 00:36:39;;;;;;;1.00;0.65;;;;;;;14.35;78.32;99224.20;1743327;79;21075;-54
2021/06/07 00:39:09;;;;;;;0.85;0.70;;;;;;;14.36;78.39;99220.52;1742573;80;20924;-52
2021/06/07 00:41:36;;;;;;;1.90;1.02;;;;;;;14.37;78.39;99223.61;1741979;79;20943;-54
2021/06/07 00:44:10;;;;;;;6.65;1.10;;;;;;;14.36;78.40;99224.09;1737706;80;20927;-55
2021/06/07 00:46:37;;;;;;;2.65;0.90;;;;;;;14.35;78.49;99227.77;1739395;80;21402;-54
2021/06/07 00:49:06;;;;;;;1.82;0.80;;;;;;;14.33;78.35;99225.66;1736673;80;21747;-54
2021/06/07 00:51:34;;;;;;;8.45;0.90;;;;;;;14.31;78.23;99235.72;1738910;80;20967;-54
2021/06/07 00:54:01;;;;;;;2.08;1.02;;;;;;;14.30;78.33;99226.35;1736576;80;21605;-54
2021/06/07 00:56:27;;;;;;;4.53;0.70;;;;;;;14.29;78.11;99231.42;1740831;79;21394;-53
2021/06/07 00:58:55;;;;;;;1.30;0.72;;;;;;;14.26;77.89;99229.78;1739095;79;20955;-54
2021/06/07 01:01:25;;;;;;;4.25;0.70;;;;;;;14.25;77.76;99231.23;1736320;79;21082;-52
2021/06/07 01:03:53;;;;;;;1.42;0.72;;;;;;;14.23;77.99;99231.83;1740409;80;21461;-57
2021/06/07 01:06:21;;;;;;;1.40;0.70;;;;;;;14.25;78.18;99233.95;1738805;79;21157;-54
2021/06/07 01:08:48;;;;;;;2.00;0.75;;;;;;;14.27;78.15;99234.71;1737134;80;21035;-54
2021/06/07 01:11:15;;;;;;;4.00;0.80;;;;;;;14.26;77.92;99243.80;1738573;80;21078;-54
2021/06/07 01:13:43;;;;;;;4.22;0.80;;;;;;;14.22;77.42;99240.44;1734902;80;21075;-58
2021/06/07 01:16:10;;;;;;;1.72;1.00;;;;;;;14.18;77.18;99241.64;1737232;80;21058;-56
2021/06/07 01:18:37;;;;;;;3.50;0.98;;;;;;;14.14;77.13;99240.60;1741520;79;21064;-55
2021/06/07 01:21:08;;;;;;;4.00;0.80;;;;;;;14.11;77.05;99239.48;1736461;80;21599;-57
2021/06/07 01:23:34;;;;;;;3.30;0.70;;;;;;;14.09;77.31;99243.65;1737130;79;21059;-56
2021/06/07 01:26:02;;;;;;;1.15;0.75;;;;;;;14.07;77.60;99244.23;1739827;79;21504;-55
2021/06/07 01:28:28;;;;;;;2.58;0.70;;;;;;;14.06;77.82;99245.20;1738511;80;21504;-56
2021/06/07 01:30:55;;;;;;;0.82;0.70;;;;;;;14.07;78.04;99244.23;1742767;79;20884;-57
2021/06/07 01:33:22;;;;;;;3.10;0.80;;;;;;;14.09;78.14;99249.55;1743057;79;20903;-55
2021/06/07 01:35:53;;;;;;;0.95;0.85;;;;;;;14.11;78.35;99242.20;1742287;80;21645;-54
2021/06/07 01:38:19;;;;;;;3.12;0.80;;;;;;;14.14;78.18;99241.47;1741141;79;21823;-53
2021/06/07 01:40:50;;;;;;;1.65;1.20;;;;;;;14.15;78.09;99246.40;1741853;79;20958;-53
2021/06/07 01:43:16;;;;;;;1.20;1.10;;;;;;;14.14;78.04;99249.59;1734616;79;21034;-55
2021/06/07 01:45:45;;;;;;;1.65;1.10;;;;;;;14.15;77.97;99251.81;1736317;80;21643;-54
2021/06/07 01:48:12;;;;;;;1.20;1.10;;;;;;;14.12;77.62;99243.93;1739857;80;21084;-56
2021/06/07 01:50:40;;;;;;;5.28;0.90;;;;;;;14.10;77.98;99248.09;1737071;79;21072;-55
2021/06/07 01:53:06;;;;;;;2.95;0.90;;;;;;;14.11;78.22;99253.02;1739607;79;20903;-56
2021/06/07 01:55:36;;;;;;;4.17;1.00;;;;;;;14.10;78.10;99250.80;1740308;80;20947;-54
2021/06/07 01:58:05;;;;;;;2.87;0.90;;;;;;;14.09;78.15;99244.13;1741986;80;21049;-55
2021/06/07 02:00:48;;;;;;;2.77;0.93;;;;;;;14.08;78.14;99251.39;1737363;79;21430;-55
2021/06/07 02:03:16;;;;;;;1.92;1.00;;;;;;;14.09;78.37;99248.19;1708327;80;21493;-53
2021/06/07 02:05:46;;;;;;;1.12;0.90;;;;;;;14.11;78.57;99250.31;1737334;80;21259;-53
2021/06/07 02:08:15;;;;;;;1.72;1.17;;;;;;;14.13;78.70;99251.91;1742015;80;20936;-55
2021/06/07 02:10:45;;;;;;;3.85;1.10;;;;;;;14.15;78.74;99251.81;1738414;80;21098;-53
2021/06/07 02:13:12;;;;;;;2.83;1.00;;;;;;;14.15;78.85;99252.68;1738227;80;21136;-54
2021/06/07 02:15:41;;;;;;;2.85;0.90;;;;;;;14.18;78.81;99247.55;1736631;80;21074;-54
2021/06/07 02:18:10;;;;;;;3.77;0.82;;;;;;;14.20;78.58;99248.31;1737951;80;21061;-56
2021/06/07 02:20:37;;;;;;;1.75;1.00;;;;;;;14.18;78.60;99255.18;1741605;80;21097;-56
2021/06/07 02:23:03;;;;;;;2.22;1.00;;;;;;;14.20;78.66;99256.44;1738261;80;21056;-56
2021/06/07 02:25:30;;;;;;;4.00;0.98;;;;;;;14.19;78.54;99259.63;1737836;79;21399;-53
2021/06/07 02:27:56;;;;;;;1.60;0.90;;;;;;;14.20;78.44;99262.72;1733310;79;21154;-56
2021/06/07 02:30:27;;;;;;;2.40;1.12;;;;;;;14.18;78.63;99259.73;1735886;80;21038;-56
2021/06/07 02:32:56;;;;;;;1.67;1.10;;;;;;;14.19;78.74;99256.05;1740584;80;21086;-56
2021/06/07 02:35:23;;;;;;;1.85;1.02;;;;;;;14.20;78.88;99266.77;1740323;80;21404;-54
2021/06/07 02:37:51;;;;;;;2.90;0.90;;;;;;;14.23;78.96;99267.02;1746824;79;21046;-56
2021/06/07 02:40:22;;;;;;;1.30;0.80;;;;;;;14.24;79.04;99269.63;1745461;79;21089;-53
2021/06/07 02:42:48;;;;;;;2.20;0.90;;;;;;;14.25;79.17;99270.01;1744832;79;21469;-56
2021/06/07 02:45:16;;;;;;;1.87;1.00;;;;;;;14.28;79.26;99271.16;1743856;79;21050;-54
2021/06/07 02:47:44;;;;;;;1.50;0.80;;;;;;;14.31;79.35;99268.21;1741502;79;21889;-55
2021/06/07 02:50:12;;;;;;;3.83;0.93;;;;;;;14.35;79.35;99268.87;1680569;83;20947;-54
2021/06/07 02:52:47;;;;;;;1.07;0.90;;;;;;;14.40;79.40;99270.78;1742207;79;21072;-55
2021/06/07 02:55:08;;;;;;;2.92;1.10;;;;;;;14.45;79.36;99278.59;1744421;79;20934;-56
2021/06/07 02:57:34;;;;;;;1.40;0.88;;;;;;;14.48;79.31;99274.30;1741039;79;20951;-56
2021/06/07 03:00:00;;;;;;;5.55;1.12;;;;;;;14.48;79.29;99281.93;1744282;79;21377;-55
2021/06/07 03:02:27;;;;;;;1.65;0.90;;;;;;;14.49;79.30;99276.03;1743886;79;21003;-54
2021/06/07 03:04:54;;;;;;;3.35;0.93;;;;;;;14.51;79.36;99278.15;1745408;79;21816;-54
2021/06/07 03:07:21;;;;;;;4.40;0.90;;;;;;;14.53;79.37;99274.85;1744068;79;20998;-56
2021/06/07 03:09:47;;;;;;;4.08;1.00;;;;;;;14.57;79.35;99277.70;1748587;79;20920;-56
2021/06/07 03:12:13;;;;;;;4.85;0.80;;;;;;;14.61;79.38;99271.09;1744365;79;21010;-56
2021/06/07 03:14:43;;;;;;;1.45;0.88;;;;;;;14.65;79.37;99270.75;1745943;79;20946;-56
2021/06/07 03:17:09;;;;;;;1.37;0.80;;;;;;;14.71;79.32;99270.81;1745257;79;21430;-54
2021/06/07 03:19:36;;;;;;;1.10;0.95;;;;;;;14.74;79.26;99274.15;1743083;79;21314;-56
2021/06/07 03:22:03;;;;;;;2.80;1.07;;;;;;;14.77;79.24;99279.84;1740705;79;21803;-56
2021/06/07 03:24:30;;;;;;;2.00;1.10;;;;;;;14.78;79.29;99278.87;1741777;79;20931;-54
2021/06/07 03:26:56;;;;;;;1.82;0.95;;;;;;;14.83;79.21;99282.58;1745652;79;21447;-56
2021/06/07 03:29:22;;;;;;;1.98;0.88;;;;;;;14.85;79.21;99281.98;1746021;79;21393;-56
2021/06/07 03:31:49;;;;;;;1.67;1.10;;;;;;;14.88;79.25;99267.73;1744435;79;21437;-55
2021/06/07 03:34:15;;;;;;;1.10;0.90;;;;;;;14.92;79.27;99273.78;1745241;79;21382;-55
2021/06/07 03:36:41;;;;;;;1.45;1.10;;;;;;;14.96;79.23;99272.59;1741936;79;21080;-57
2021/06/07 03:39:08;;;;;;;4.28;1.40;;;;;;;14.99;79.20;99267.79;1739963;79;20868;-56
2021/06/07 03:41:34;;;;;;;1.40;1.10;;;;;;;15.02;79.22;99273.00;1738688;79;21772;-55
2021/06/07 03:44:01;;;;;;;1.82;1.12;;;;;;;15.05;79.18;99275.98;1738707;79;20935;-54
2021/06/07 03:46:27;;;;;;;5.22;1.10;;;;;;;15.07;79.12;99280.28;1736230;79;21535;-56
2021/06/07 03:48:54;;;;;;;2.58;1.07;;;;;;;15.09;79.05;99270.20;1736504;79;21461;-56
2021/06/07 03:51:20;;;;;;;4.20;1.30;;;;;;;15.13;79.09;99269.50;1736604;79;21065;-56
2021/06/07 03:53:47;;;;;;;2.58;1.05;;;;;;;15.17;79.12;99272.83;1736503;79;21155;-56
2021/06/07 03:56:13;;;;;;;4.08;1.20;;;;;;;15.22;79.22;99269.30;1738321;79;21035;-55
2021/06/07 03:58:39;;;;;;;1.10;1.00;;;;;;;15.22;79.22;99269.30;1735849;79;21081;-56
2021/06/07 04:01:06;;;;;;;1.37;1.00;;;;;;;15.26;79.22;99278.44;1735717;79;21135;-55
2021/06/07 04:03:33;;;;;;;2.58;1.25;;;;;;;15.31;79.37;99284.36;1736585;79;21027;-56
2021/06/07 04:05:59;;;;;;;2.58;2.05;;;;;;;15.33;79.21;99285.13;1738370;79;21638;-57
2021/06/07 04:08:26;;;;;;;4.08;1.57;;;;;;;15.33;79.21;99285.13;1739271;80;22361;-57
2021/06/07 04:10:52;;;;;;;3.05;1.15;;;;;;;15.37;79.16;99290.70;1734371;79;21446;-55
2021/06/07 04:13:19;;;;;;;2.58;1.10;;;;;;;15.42;79.44;99297.13;1736779;79;21066;-55
2021/06/07 04:15:45;;;;;;;3.75;0.85;;;;;;;15.42;79.44;99297.13;1737725;79;21078;-53
2021/06/07 04:18:11;;;;;;;2.02;1.22;;;;;;;15.45;79.57;99290.99;1733934;79;21626;-57
2021/06/07 04:20:38;;;;;;;4.25;1.10;;;;;;;15.49;79.67;99289.77;1737151;79;20973;-57
2021/06/07 04:23:04;;;;;;;2.50;0.90;;;;;;;15.57;79.71;99299.23;1736780;79;22492;-53
2021/06/07 04:25:30;;;;;;;1.32;1.22;;;;;;;15.61;79.65;99289.37;1734323;79;21086;-57
2021/06/07 04:27:58;;;;;;;3.22;1.47;;;;;;;15.66;79.66;99295.30;1738352;79;21045;-54
2021/06/07 04:30:27;;;;;;;2.77;1.25;;;;;;;15.72;79.66;99296.70;1745333;79;20896;-56
2021/06/07 04:32:54;;;;;;;1.62;1.07;;;;;;;15.77;79.57;99282.27;1741038;79;21095;-54
2021/06/07 04:35:20;;;;;;;1.87;1.05;;;;;;;15.80;79.42;99287.48;1734837;79;22174;-55
2021/06/07 04:37:51;;;;;;;2.30;1.37;;;;;;;15.84;79.16;99292.53;1730082;79;21407;-55
2021/06/07 04:40:21;;;;;;;1.27;0.88;;;;;;;15.86;78.91;99291.06;1727192;79;21052;-51
2021/06/07 04:42:49;;;;;;;5.45;1.07;;;;;;;15.87;78.90;99290.09;1733610;79;21116;-50
2021/06/07 04:45:15;;;;;;;2.10;1.00;;;;;;;15.89;78.83;99293.06;1731779;79;21029;-52
2021/06/07 04:47:43;;;;;;;2.25;1.10;;;;;;;15.92;78.67;99289.23;1731727;80;21108;-52
2021/06/07 04:50:11;;;;;;;2.92;1.30;;;;;;;15.94;78.67;99294.05;1737359;79;21082;-51
2021/06/07 04:55:36;;;;;;;3.08;1.32;;;;;;;16.00;78.53;99298.13;1733884;79;22116;-52
2021/06/07 04:58:08;;;;;;;1.10;0.90;;;;;;;16.05;78.42;99304.09;1726218;80;21053;-51
2021/06/07 05:00:35;;;;;;;1.00;0.82;;;;;;;16.10;78.38;99300.02;1733225;79;21030;-54
2021/06/07 05:03:01;;;;;;;1.17;0.90;;;;;;;16.14;78.31;99296.58;1731448;79;21113;-53
2021/06/07 05:05:28;;;;;;;1.22;1.12;;;;;;;16.21;78.25;99295.11;1736429;79;21048;-51
2021/06/07 05:07:54;;;;;;;6.47;1.12;;;;;;;16.29;78.16;99295.38;1736039;79;21284;-54
2021/06/07 05:10:21;;;;;;;1.37;1.15;;;;;;;16.37;78.19;99296.12;1727200;79;21034;-52
2021/06/07 05:12:47;;;;;;;6.53;1.10;;;;;;;16.42;78.29;99301.55;1728509;79;21087;-51
2021/06/07 05:15:15;;;;;;;4.22;1.20;;;;;;;16.49;78.40;99309.61;1727104;79;21042;-55
2021/06/07 05:17:42;;;;;;;4.12;1.00;;;;;;;16.56;78.37;99312.20;1729018;79;20970;-53
2021/06/07 05:20:12;;;;;;;1.00;0.90;;;;;;;16.61;78.17;99308.65;1695227;82;20949;-53
2021/06/07 05:22:38;;;;;;;2.42;0.90;;;;;;;16.67;78.17;99322.27;1729163;79;20883;-52
2021/06/07 05:25:06;;;;;;;5.15;0.80;;;;;;;16.67;77.88;99308.67;1730273;79;21348;-55
2021/06/07 05:27:33;;;;;;;2.47;0.98;;;;;;;16.67;77.86;99310.03;1729673;79;21085;-54
2021/06/07 05:30:00;;;;;;;1.02;0.90;;;;;;;16.69;77.68;99304.45;1726539;79;21133;-53
2021/06/07 05:32:27;;;;;;;1.95;0.95;;;;;;;16.71;77.65;99305.20;1730231;79;21125;-52
2021/06/07 05:34:53;;;;;;;3.98;0.93;;;;;;;16.76;77.58;99309.79;1725965;79;21077;-54
2021/06/07 05:37:21;;;;;;;2.77;0.90;;;;;;;16.77;77.48;99304.20;1728171;79;21073;-52
2021/06/07 05:39:49;;;;;;;1.12;0.90;;;;;;;16.77;77.39;99308.28;1734365;79;21580;-52
2021/06/07 05:42:16;;;;;;;3.20;0.88;;;;;;;16.76;77.41;99313.34;1740505;79;20905;-50
2021/06/07 05:44:43;;;;;;;0.82;0.80;;;;;;;16.78;77.45;99306.43;1740409;79;21073;-52
2021/06/07 05:47:09;;;;;;;1.70;0.90;;;;;;;16.81;77.42;99302.11;1738229;79;20927;-52
2021/06/07 05:49:38;;;;;;;0.80;0.80;;;;;;;16.86;77.50;99309.39;1740193;79;20955;-55
2021/06/07 05:52:08;;;;;;;2.60;1.47;;;;;;;16.91;77.56;99310.77;1741747;79;21088;-55
2021/06/07 05:54:36;;;;;;;1.22;0.75;;;;;;;16.95;77.61;99304.08;1738590;79;20927;-51
2021/06/07 05:57:03;;;;;;;1.15;0.90;;;;;;;17.01;77.57;99302.73;1739911;79;21068;-55
2021/06/07 05:59:29;;;;;;;1.17;1.05;;;;;;;17.06;77.63;99307.78;1736679;79;21492;-52
2021/06/07 06:01:55;;;;;;;1.37;1.25;;;;;;;17.08;77.54;99303.09;1741008;79;21612;-52
2021/06/07 06:04:23;;;;;;;1.90;1.00;;;;;;;17.11;77.51;99300.09;1738027;79;20943;-54
2021/06/07 06:06:50;;;;;;;5.28;0.82;;;;;;;17.14;77.35;99301.22;1740257;79;20951;-52
2021/06/07 06:09:16;;;;;;;2.58;0.82;;;;;;;17.18;77.30;99299.98;1740116;79;21355;-53
2021/06/07 06:11:44;;;;;;;2.40;0.90;;;;;;;17.19;77.24;99305.27;1743175;79;21453;-52
2021/06/07 06:14:11;;;;;;;2.98;0.82;;;;;;;17.25;77.38;99303.43;1738489;79;20935;-55
2021/06/07 06:16:37;;;;;;;1.32;0.82;;;;;;;17.32;77.33;99305.14;1737736;79;20903;-51
2021/06/07 06:19:05;;;;;;;1.00;0.90;;;;;;;17.39;77.17;99311.30;1740996;79;21298;-51
2021/06/07 06:21:33;;;;;;;1.07;1.00;;;;;;;17.48;77.33;99314.25;1742409;79;21411;-54
2021/06/07 06:24:00;;;;;;;2.42;0.80;;;;;;;17.55;77.23;99304.57;1741349;80;20895;-53
2021/06/07 06:26:26;;;;;;;5.20;0.80;;;;;;;17.61;76.96;99306.77;1742115;79;20892;-54
2021/06/07 06:28:52;;;;;;;1.35;0.70;;;;;;;17.67;76.82;99311.75;1743453;79;21003;-54
2021/06/07 06:31:20;;;;;;;2.40;0.80;;;;;;;17.70;76.33;99315.55;1737963;79;21740;-55
2021/06/07 06:33:47;;;;;;;3.05;0.88;;;;;;;17.70;75.81;99319.64;1738948;79;21140;-55
2021/06/07 06:36:13;;;;;;;0.80;0.80;;;;;;;17.68;75.71;99318.43;1740723;79;20982;-53
2021/06/07 06:38:40;;;;;;;3.12;1.05;;;;;;;17.66;75.38;99319.55;1719284;80;20968;-55
2021/06/07 06:41:06;;;;;;;1.30;0.90;;;;;;;17.63;75.47;99317.94;1710723;81;20929;-55
2021/06/07 06:43:35;;;;;;;2.27;1.00;;;;;;;17.62;75.36;99320.28;1709467;81;20972;-53
2021/06/07 06:46:03;;;;;;;1.62;0.70;;;;;;;17.61;75.31;99314.44;1712164;81;21682;-52
2021/06/07 06:48:32;;;;;;;3.45;0.70;;;;;;;17.61;75.50;99321.73;1712691;81;21037;-51
2021/06/07 06:50:58;;;;;;;2.35;0.80;;;;;;;17.62;75.48;99317.56;1711139;81;21036;-51
2021/06/07 06:53:24;;;;;;;1.35;0.70;;;;;;;17.65;75.73;99315.09;1711307;81;21099;-52
2021/06/07 06:55:51;;;;;;;0.82;0.82;;;;;;;17.68;75.96;99309.40;1708081;81;21427;-55
2021/06/07 06:58:17;;;;;;;2.33;1.17;;;;;;;17.73;76.05;99310.73;1708769;81;21095;-51
2021/06/07 07:00:44;;;;;;;4.25;0.93;;;;;;;17.78;75.93;99314.94;1706778;81;21084;-52
2021/06/07 07:03:15;;;;;;;0.95;0.85;;;;;;;17.80;76.02;99313.79;1712322;81;21355;-54
2021/06/07 07:05:42;;;;;;;5.08;1.20;;;;;;;17.82;75.96;99313.17;1712506;81;21052;-53
2021/06/07 07:08:08;;;;;;;3.40;0.90;;;;;;;17.86;76.15;99312.42;1709288;81;21075;-51
2021/06/07 07:10:37;;;;;;;2.92;0.80;;;;;;;17.91;76.24;99309.67;1711266;81;22635;-51
2021/06/07 07:13:04;;;;;;;1.00;0.80;;;;;;;17.96;76.28;99314.21;1708346;81;21020;-53
2021/06/07 07:15:31;;;;;;;5.35;1.00;;;;;;;18.02;76.09;99308.26;1713817;81;20953;-52
2021/06/07 07:17:57;;;;;;;2.62;0.80;;;;;;;18.09;75.58;99304.02;1714917;81;20905;-52
2021/06/07 07:20:25;;;;;;;1.47;0.72;;;;;;;18.19;75.58;99308.66;1717900;81;21053;-52
2021/06/07 07:22:51;;;;;;;1.55;0.78;;;;;;;18.25;75.43;99299.45;1713860;81;21119;-51
2021/06/07 07:25:17;;;;;;;2.80;0.80;;;;;;;18.34;75.27;99310.92;1713490;81;21383;-52
2021/06/07 07:27:44;;;;;;;0.85;0.70;;;;;;;18.44;73.99;99309.62;1712591;81;21449;-54
2021/06/07 07:30:13;;;;;;;1.42;0.72;;;;;;;18.50;72.80;99306.34;1712743;81;21530;-55
2021/06/07 07:32:41;;;;;;;2.42;0.60;;;;;;;18.54;73.04;99311.91;1711110;81;22235;-52
2021/06/07 07:35:09;;;;;;;1.17;0.70;;;;;;;18.61;72.88;99302.22;1708973;81;21574;-53
2021/06/07 07:37:36;;;;;;;1.35;0.70;;;;;;;18.73;72.45;99301.12;1662970;83;21127;-53
2021/06/07 07:40:07;;;;;;;6.42;0.70;;;;;;;18.84;72.23;99298.80;1676761;83;21143;-54
2021/06/07 07:42:34;;;;;;;1.87;0.60;;;;;;;18.93;71.29;99290.30;1744470;79;20979;-54
2021/06/07 07:45:01;;;;;;;0.70;0.60;;;;;;;19.03;71.22;99296.66;1746252;79;20982;-54
2021/06/07 07:47:29;;;;;;;2.10;0.55;;;;;;;19.11;70.83;99291.38;1744701;79;21101;-54
2021/06/07 07:49:56;;;;;;;1.72;0.60;;;;;;;19.20;70.21;99301.45;1742098;79;21085;-54
2021/06/07 07:52:25;;;;;;;2.87;0.68;;;;;;;19.28;69.79;99301.62;1744327;79;21045;-53
2021/06/07 07:54:55;;;;;;;2.55;0.70;;;;;;;19.36;69.75;99300.41;1743490;79;21033;-53
2021/06/07 07:57:22;;;;;;;0.85;0.70;;;;;;;19.43;69.18;99296.11;1745950;79;20923;-53
2021/06/07 07:59:49;;;;;;;0.68;0.60;;;;;;;19.51;69.18;99299.03;1745154;79;21060;-52
2021/06/07 08:02:17;;;;;;;0.90;0.50;;;;;;;19.62;69.14;99292.59;1749737;79;21437;-52
2021/06/07 08:04:44;;;;;;;0.55;0.50;;;;;;;19.74;68.82;99286.47;1743035;79;21085;-53
2021/06/07 08:07:11;;;;;;;0.60;0.60;;;;;;;19.85;67.37;99286.34;1743224;79;21402;-54
2021/06/07 08:09:37;;;;;;;0.65;0.50;;;;;;;19.96;66.01;99291.66;1740540;79;21121;-52
2021/06/07 08:12:05;;;;;;;0.60;0.50;;;;;;;20.08;65.86;99288.26;1744515;79;21144;-52
2021/06/07 08:14:32;;;;;;;0.60;0.60;;;;;;;20.19;65.62;99290.84;1744413;79;21155;-54
2021/06/07 08:16:58;;;;;;;2.95;0.50;;;;;;;20.27;64.18;99293.20;1746581;79;21042;-55
2021/06/07 08:19:25;;;;;;;1.05;0.50;;;;;;;20.34;63.45;99293.51;1745751;79;21064;-52
2021/06/07 08:21:52;;;;;;;2.42;0.50;;;;;;;20.37;64.49;99291.36;1743782;79;22117;-53
2021/06/07 08:24:18;;;;;;;1.50;0.50;;;;;;;20.39;63.69;99292.58;1740762;79;21133;-52
2021/06/07 08:26:45;;;;;;;1.62;0.62;;;;;;;20.43;63.36;99299.96;1744849;79;21038;-55
2021/06/07 08:29:11;;;;;;;9.75;0.70;;;;;;;20.46;62.81;99302.41;1743277;79;21643;-53
2021/06/07 08:31:38;;;;;;;0.93;0.50;;;;;;;20.48;63.31;99304.00;1744521;79;21533;-54
2021/06/07 08:34:04;;;;;;;1.22;0.50;;;;;;;20.49;62.30;99293.42;1745565;79;20939;-54
2021/06/07 08:36:31;;;;;;;0.80;0.53;;;;;;;20.49;60.95;99298.89;1743606;79;21128;-53
2021/06/07 08:38:59;;;;;;;1.32;0.40;;;;;;;20.49;60.50;99297.53;1740814;79;20935;-53
2021/06/07 08:41:25;;;;;;;1.10;0.50;;;;;;;20.49;61.61;99298.89;1735957;80;22295;-52
2021/06/07 08:43:52;;;;;;;0.65;0.42;;;;;;;20.50;60.98;99300.59;1736311;80;21046;-54
2021/06/07 08:46:18;;;;;;;2.95;0.60;;;;;;;20.50;60.83;99299.22;1741211;80;21037;-55
2021/06/07 08:48:45;;;;;;;1.17;0.60;;;;;;;20.52;60.54;99296.34;1738543;80;21138;-55
2021/06/07 08:51:11;;;;;;;1.42;0.60;;;;;;;20.55;60.94;99296.92;1735763;80;21078;-54
2021/06/07 08:53:38;;;;;;;2.85;0.60;;;;;;;20.59;61.59;99286.54;1740040;80;21066;-54
2021/06/07 08:56:05;;;;;;;2.67;0.88;;;;;;;20.60;61.62;99291.00;1741876;80;20955;-56
2021/06/07 08:58:32;;;;;;;1.32;0.57;;;;;;;20.63;61.10;99293.45;1723228;80;20994;-53
2021/06/07 09:00:59;;;;;;;3.25;0.50;;;;;;;20.69;61.49;99287.38;1739794;80;21380;-52
2021/06/07 09:03:32;;;;;;;0.78;0.60;;;;;;;20.76;60.54;99288.49;1741820;79;20911;-53
2021/06/07 09:06:00;;;;;;;3.80;0.60;;;;;;;20.80;60.15;99285.83;1743710;79;20927;-54
2021/06/07 09:08:34;;;;;;;1.67;0.70;;;;;;;20.93;62.20;99285.47;1739656;79;21003;-54
2021/06/07 09:11:13;;;;;;;1.70;0.70;;;;;;;21.07;62.81;99279.52;1743098;80;21591;-51
2021/06/07 09:13:39;;;;;;;0.88;0.60;;;;;;;21.22;59.37;99286.74;1740078;79;21739;-53
2021/06/07 09:16:06;;;;;;;1.95;0.60;;;;;;;21.34;56.93;99291.01;1739743;80;21629;-55
2021/06/07 09:18:40;;;;;;;1.07;0.60;;;;;;;21.40;58.09;99281.67;1740324;80;20959;-54
2021/06/07 09:21:12;;;;;;;;;;;;;;;21.50;59.23;99287.09;1745762;79;21006;-56
2021/06/07 09:23:49;;;;;;;1.20;0.60;;;;;;;21.59;57.96;99286.16;1740810;80;20149;-54
2021/06/07 09:26:33;;;;;;;0.85;0.60;;;;;;;21.65;55.21;99283.30;1742814;80;21683;-55
2021/06/07 09:29:05;;;;;;;3.77;0.60;;;;;;;21.67;55.89;99288.12;1739887;79;20971;-56
2021/06/07 09:31:35;;;;;;;2.58;0.60;;;;;;;21.64;56.06;99283.80;1741118;79;21445;-55
2021/06/07 09:34:06;;;;;;;0.78;0.60;;;;;;;21.64;55.54;99277.46;1742557;79;21390;-52
2021/06/07 09:36:33;;;;;;;1.82;0.70;;;;;;;21.62;55.79;99276.24;1737892;80;21377;-53
2021/06/07 09:39:12;;;;;;;1.27;0.60;;;;;;;21.61;56.22;99279.13;1739392;79;21752;-55
2021/06/07 09:41:57;;;;;;;2.17;0.50;;;;;;;21.60;56.57;99278.30;1740552;79;20915;-52
2021/06/07 09:44:48;;;;;;;1.85;0.60;;;;;;;21.61;55.52;99264.94;1744103;80;21025;-52
2021/06/07 09:47:25;;;;;;;3.15;0.65;;;;;;;21.62;55.00;99251.59;1736381;79;21504;-53
2021/06/07 09:49:56;;;;;;;1.90;0.70;;;;;;;21.67;56.00;99253.88;1741472;79;21117;-55
2021/06/07 09:53:17;;;;;;;0.70;0.70;;;;;;;21.79;56.11;99249.36;1800907;77;28167;-54
2021/06/07 09:55:43;;;;;;;2.25;0.50;;;;;;;21.82;56.56;99239.47;1750935;79;20882;-53
2021/06/07 09:58:10;;;;;;;4.05;1.62;;;;;;;21.95;55.59;99240.97;1735879;81;21144;-55
2021/06/07 10:00:51;;;;;;;2.15;0.70;;;;;;;21.97;55.66;99238.90;1707803;82;21367;-55
2021/06/07 10:03:26;;;;;;;3.67;0.60;;;;;;;21.99;54.74;99236.39;1710526;82;20942;-54
2021/06/07 10:06:00;;;;;;;1.95;0.70;;;;;;;22.00;53.67;99237.25;1714055;82;20970;-54
2021/06/07 10:08:57;;;;;;;1.10;0.60;;;;;;;22.01;53.78;99242.59;1736543;81;20972;-52
2021/06/07 10:11:32;;;;;;;4.42;1.10;;;;;;;21.98;53.60;99229.70;1736024;81;21152;-53
2021/06/07 10:14:19;;;;;;;0.80;0.47;;;;;;;21.96;53.01;99224.84;1711433;82;21029;-55
2021/06/07 10:16:57;;;;;;;0.88;0.60;;;;;;;21.94;54.14;99217.31;1712238;82;21363;-54
2021/06/07 10:19:30;;;;;;;2.90;0.60;;;;;;;21.92;54.85;99219.34;1712237;82;20959;-53
2021/06/07 10:21:50;;;;;;;1.40;0.65;;;;;;;21.91;52.49;99217.11;1709835;81;21974;-52
2021/06/07 10:24:16;;;;;;;0.50;0.50;;;;;;;21.91;52.84;99213.00;1737660;81;21092;-54
2021/06/07 10:26:43;;;;;;;1.47;0.98;;;;;;;21.94;52.81;99217.31;1721661;81;21164;-56
2021/06/07 10:29:09;;;;;;;2.02;0.65;;;;;;;22.00;53.05;99207.11;1720080;81;21125;-56
2021/06/07 10:31:38;;;;;;;3.70;0.60;;;;;;;22.08;53.00;99204.44;1722777;81;21124;-56
2021/06/07 10:34:07;;;;;;;1.40;0.70;;;;;;;22.17;53.46;99204.84;1719907;81;21582;-53
2021/06/07 10:36:37;;;;;;;2.58;1.15;;;;;;;22.27;51.79;99200.13;1723315;81;21137;-53
2021/06/07 10:39:20;;;;;;;1.47;0.65;;;;;;;22.30;51.81;99200.28;1705390;82;21203;-54
2021/06/07 10:41:50;;;;;;;0.93;0.60;;;;;;;22.29;51.81;99196.68;1721599;80;21022;-56
2021/06/07 10:44:38;;;;;;;0.93;0.70;;;;;;;22.23;52.53;99189.98;1703336;81;21041;-53
2021/06/07 10:47:11;;;;;;;1.00;0.62;;;;;;;22.23;53.10;99186.37;1708105;81;21690;-54
2021/06/07 10:49:45;;;;;;;2.85;0.70;;;;;;;22.19;52.52;99193.22;1712529;81;21095;-54
2021/06/07 10:52:18;;;;;;;3.42;0.75;;;;;;;22.17;53.67;99191.14;1701172;81;21038;-54
2021/06/07 10:54:59;;;;;;;10.37;0.83;;;;;;;22.17;53.52;99193.87;1694644;82;21002;-54
2021/06/07 10:57:44;;;;;;;0.68;0.60;;;;;;;22.18;53.17;99192.86;1689794;82;21101;-54
2021/06/07 11:00:25;;;;;;;5.25;0.70;;;;;;;22.22;53.26;99191.50;1689933;82;21165;-57
2021/06/07 11:02:55;;;;;;;3.87;0.60;;;;;;;22.26;53.81;99197.03;1689708;82;21657;-58
2021/06/07 11:05:31;;;;;;;1.12;0.80;;;;;;;22.32;54.24;99189.52;1689515;82;21513;-56
2021/06/07 11:08:30;;;;;;;1.40;0.70;;;;;;;22.40;53.96;99195.05;1691716;82;21015;-56
2021/06/07 11:11:06;;;;;;;1.72;0.70;;;;;;;22.51;53.33;99179.70;1662892;82;21442;-55
2021/06/07 11:13:48;;;;;;;2.72;0.80;;;;;;;22.63;52.69;99172.88;1690758;82;21128;-56
2021/06/07 11:16:46;;;;;;;2.77;0.60;;;;;;;22.70;52.34;99168.99;1678174;83;21782;-57
2021/06/07 11:19:17;;;;;;;1.50;0.60;;;;;;;22.79;52.03;99173.52;1698152;82;21085;-57
2021/06/07 11:22:02;;;;;;;3.12;0.68;;;;;;;22.86;50.92;99165.48;1693133;82;21382;-58
2021/06/07 11:24:34;;;;;;;0.88;0.50;;;;;;;22.89;51.11;99169.24;1692736;82;20943;-57
2021/06/07 11:27:03;;;;;;;0.90;0.47;;;;;;;22.96;50.04;99169.81;1693970;82;20963;-58
2021/06/07 11:29:32;;;;;;;1.30;0.60;;;;;;;22.99;50.49;99158.98;1692124;82;21102;-59
2021/06/07 11:32:10;;;;;;;5.05;0.60;;;;;;;23.00;47.94;99158.83;1691199;82;21070;-57
2021/06/07 11:34:48;;;;;;;1.85;0.50;;;;;;;23.04;48.37;99161.25;1691370;82;21577;-57
2021/06/07 11:37:34;;;;;;;0.65;0.47;;;;;;;23.07;47.95;99149.41;1689111;82;21070;-57
2021/06/07 11:40:03;;;;;;;0.57;0.50;;;;;;;23.12;46.95;99147.03;1688280;82;21473;-55
2021/06/07 11:42:29;;;;;;;2.67;0.50;;;;;;;23.13;48.70;99148.75;1696287;82;22163;-55
2021/06/07 11:45:03;;;;;;;1.02;0.60;;;;;;;23.22;47.80;99146.89;1684170;82;21458;-58
2021/06/07 11:47:49;;;;;;;0.50;0.47;;;;;;;23.26;47.73;99145.50;1689599;82;21362;-57